Time;durP1;ratioP1;P1;durP2;ratioP2;P2;SDS_P1;SDS_P2;PMS_P1;PMS_P2;Temp;Humidity;BMP_temperature;BMP_pressure;BME280_temperature;BME280_humidity;BME280_pressure;Samples;Min_cycle;Max_cycle;Signal;HPM_P1;HPM_P2
2021/12/13 00:00:58;;;;;;;7.93;4.90;;;11.00;54.60;;;-142.21;92.81;112049.66;5006043;28;21020;-79
2021/12/13 00:03:32;;;;;;;4.90;4.10;;;11.10;54.70;;;-142.21;92.37;112049.66;5007926;28;20533;-79
2021/12/13 00:06:08;;;;;;;5.93;4.50;;;11.00;54.60;;;-142.21;92.71;112049.66;5002972;28;20556;-80
2021/12/13 00:08:41;;;;;;;5.80;4.50;;;11.00;54.70;;;-142.21;93.17;112049.66;4995021;28;20529;-80
2021/12/13 00:11:18;;;;;;;7.70;5.10;;;11.00;54.80;;;-142.21;92.79;112049.66;4997179;28;20609;-80
2021/12/13 00:13:52;;;;;;;4.73;4.30;;;10.90;55.40;;;-142.21;93.15;112049.66;4998954;28;20481;-79
2021/12/13 00:16:29;;;;;;;5.80;4.47;;;10.90;54.80;;;-142.21;92.66;112049.66;4997743;28;20470;-79
2021/12/13 00:19:03;;;;;;;4.80;4.10;;;10.90;54.90;;;-142.21;93.28;112049.66;5009191;28;20469;-80
2021/12/13 00:21:41;;;;;;;6.33;4.50;;;10.90;55.00;;;-142.21;93.31;112049.66;5008533;28;22194;-79
2021/12/13 00:24:15;;;;;;;7.17;4.90;;;10.90;55.00;;;-142.21;93.55;112049.66;5002556;28;20543;-78
2021/12/13 00:26:47;;;;;;;4.83;4.33;;;11.00;55.00;;;-142.21;93.41;112049.66;5004559;28;20450;-78
2021/12/13 00:29:19;;;;;;;4.80;4.27;;;10.90;55.00;;;-142.21;93.81;112049.66;4998040;28;20525;-80
2021/12/13 00:32:00;;;;;;;5.90;4.13;;;10.90;55.00;;;-142.21;93.11;112049.66;5004241;28;20466;-79
2021/12/13 00:34:39;;;;;;;6.17;4.27;;;10.90;54.90;;;-142.21;93.45;112049.66;5002598;28;20501;-79
2021/12/13 00:37:11;;;;;;;7.77;4.40;;;10.90;55.10;;;-142.21;93.35;112049.66;4994766;28;20485;-79
2021/12/13 00:39:51;;;;;;;6.80;4.60;;;10.90;55.10;;;-142.21;93.33;112049.66;4991771;28;20911;-80
2021/12/13 00:42:22;;;;;;;5.83;4.37;;;11.00;55.10;;;-142.21;93.55;112049.66;4958226;28;20577;-79
2021/12/13 00:44:54;;;;;;;8.70;5.20;;;11.00;55.00;;;-142.21;93.52;112049.66;4995875;28;21009;-80
2021/12/13 00:47:27;;;;;;;6.63;4.63;;;11.00;55.10;;;-142.21;93.08;112049.66;5001153;28;20556;-79
2021/12/13 00:50:03;;;;;;;5.03;4.23;;;11.00;55.00;;;-142.21;93.49;112049.66;4998401;28;20537;-80
2021/12/13 00:52:35;;;;;;;5.20;4.70;;;11.00;55.00;;;-142.21;93.74;112049.66;5003615;28;20473;-80
2021/12/13 00:55:13;;;;;;;7.67;4.60;;;11.00;55.00;;;-142.21;93.40;112049.66;5008411;28;20542;-80
2021/12/13 00:57:46;;;;;;;8.27;4.60;;;11.00;55.00;;;-142.21;92.90;112049.66;5001329;28;20925;-79
2021/12/13 01:00:26;;;;;;;4.70;4.17;;;11.00;54.90;;;-142.21;93.11;112049.66;4989452;28;20563;-79
2021/12/13 01:03:00;;;;;;;6.47;4.30;;;10.90;54.90;;;-142.21;92.90;112049.66;5012056;28;20470;-79
2021/12/13 01:05:47;;;;;;;5.37;4.40;;;10.90;55.00;;;-142.21;92.92;112049.66;4998992;28;20540;-80
2021/12/13 01:08:42;;;;;;;5.50;4.57;;;10.90;55.20;;;-142.21;92.39;112049.66;4999565;28;20468;-79
2021/12/13 01:11:35;;;;;;;6.27;4.77;;;10.90;55.00;;;-142.21;93.29;112049.66;5004126;28;20581;-79
2021/12/13 01:14:39;;;;;;;5.43;4.53;;;10.90;55.20;;;-142.21;93.29;112049.66;4995084;28;20530;-80
2021/12/13 01:17:21;;;;;;;6.10;4.40;;;10.90;55.30;;;-142.21;94.30;112049.66;5003156;28;20509;-79
2021/12/13 01:19:57;;;;;;;6.57;4.60;;;10.90;55.40;;;-142.21;93.77;112049.66;4995956;28;20451;-79
2021/12/13 01:22:47;;;;;;;7.67;4.73;;;10.90;55.40;;;-142.21;94.73;112049.66;5007143;28;20869;-79
2021/12/13 01:25:39;;;;;;;6.10;5.10;;;10.90;55.60;;;-142.21;94.93;112049.66;4999571;28;20450;-78
2021/12/13 01:28:18;;;;;;;7.80;4.63;;;10.90;55.70;;;-142.21;95.36;112049.66;5010763;28;20956;-80
2021/12/13 01:30:51;;;;;;;8.67;5.50;;;10.80;55.90;;;-142.21;95.33;112049.66;4996419;28;20443;-80
2021/12/13 01:33:20;;;;;;;6.67;4.77;;;10.80;56.00;;;-142.21;95.16;112049.66;5003664;28;20520;-80
2021/12/13 01:35:52;;;;;;;6.40;4.87;;;10.80;56.10;;;-142.21;95.89;112049.66;5001598;28;20479;-80
2021/12/13 01:38:32;;;;;;;6.70;5.30;;;10.70;56.10;;;-142.21;95.91;112049.66;5005108;28;20473;-79
2021/12/13 01:41:07;;;;;;;6.27;4.67;;;10.70;56.60;;;-142.21;96.41;112049.66;5012527;28;20465;-79
2021/12/13 01:43:41;;;;;;;7.93;4.83;;;10.70;56.60;;;-142.21;96.41;112049.66;4997685;28;20538;-80
2021/12/13 01:46:09;;;;;;;5.73;4.73;;;10.60;56.70;;;-142.21;96.27;112049.66;5003477;28;20918;-79
2021/12/13 01:48:41;;;;;;;6.87;5.20;;;10.50;56.60;;;-142.21;96.68;112049.66;5008997;28;20447;-79
2021/12/13 01:51:14;;;;;;;6.13;4.73;;;10.50;56.80;;;-142.21;97.05;112049.66;5000381;28;20575;-79
2021/12/13 01:53:48;;;;;;;5.07;4.57;;;10.50;57.00;;;-142.21;96.86;112049.66;5012069;28;20446;-79
2021/12/13 01:59:40;;;;;;;5.63;5.03;;;10.60;57.00;;;-142.21;97.27;112049.66;5003512;28;20450;-80
2021/12/13 02:02:24;;;;;;;5.80;4.40;;;10.60;56.90;;;-142.21;97.07;112049.66;4999990;28;20853;-79
2021/12/13 02:05:08;;;;;;;5.70;4.93;;;10.70;56.90;;;-142.21;96.17;112049.66;5006138;28;21008;-79
2021/12/13 02:07:45;;;;;;;5.83;4.17;;;10.70;56.50;;;-142.21;95.86;112049.66;5004293;28;20438;-79
2021/12/13 02:10:21;;;;;;;6.77;4.27;;;10.70;56.40;;;-142.21;95.71;112049.66;5011860;28;20485;-80
2021/12/13 02:12:58;;;;;;;4.63;4.23;;;10.70;56.30;;;-142.21;95.88;112049.66;4994185;28;20478;-80
2021/12/13 02:18:21;;;;;;;5.40;4.40;;;10.70;56.10;;;-142.21;95.91;112049.66;4999168;28;20487;-80
2021/12/13 02:20:57;;;;;;;7.03;4.30;;;10.70;56.40;;;-142.21;96.12;112049.66;5006406;28;20445;-80
2021/12/13 02:23:26;;;;;;;6.63;4.60;;;10.70;56.30;;;-142.21;96.04;112049.66;5001715;28;20447;-80
2021/12/13 02:25:57;;;;;;;5.27;4.43;;;10.80;56.30;;;-142.21;96.56;112049.66;5006460;28;20457;-80
2021/12/13 02:28:29;;;;;;;5.20;4.43;;;10.80;56.30;;;-142.21;95.89;112049.66;5001732;28;20449;-79
2021/12/13 02:31:01;;;;;;;6.73;4.80;;;10.80;56.40;;;-142.21;96.09;112049.66;5007080;28;20530;-79
2021/12/13 02:33:35;;;;;;;6.63;4.50;;;10.80;56.40;;;-142.21;97.08;112049.66;5007856;28;20542;-79
2021/12/13 02:36:08;;;;;;;5.83;4.60;;;10.80;56.60;;;-142.21;96.73;112049.66;5006793;28;20493;-80
2021/12/13 02:38:39;;;;;;;5.93;4.47;;;10.80;56.40;;;-142.21;96.63;112049.66;4999867;28;20534;-79
2021/12/13 02:41:10;;;;;;;5.33;4.40;;;10.90;56.50;;;-142.21;97.30;112049.66;5005319;28;20509;-80
2021/12/13 02:43:56;;;;;;;8.87;4.90;;;10.90;56.50;;;-142.21;97.02;112049.66;5011528;28;20477;-80
2021/12/13 02:46:24;;;;;;;4.83;4.30;;;10.90;56.50;;;-142.21;97.33;112049.66;5012308;28;20446;-80
2021/12/13 02:48:58;;;;;;;5.20;4.17;;;10.90;56.50;;;-142.21;97.92;112049.66;5005505;28;20479;-79
2021/12/13 02:51:32;;;;;;;6.63;5.00;;;10.90;56.60;;;-142.21;98.47;112049.66;4995062;28;20447;-79
2021/12/13 02:54:07;;;;;;;5.33;4.80;;;10.90;56.80;;;-142.21;97.42;112049.66;5003286;28;20443;-79
2021/12/13 02:56:42;;;;;;;7.33;4.67;;;10.90;56.50;;;-142.21;97.39;112049.66;5004768;28;20448;-79
2021/12/13 02:59:16;;;;;;;6.83;4.83;;;10.90;56.50;;;-142.21;97.60;112049.66;4989651;28;20545;-80
2021/12/13 03:01:53;;;;;;;6.77;4.97;;;10.90;56.60;;;-142.21;97.73;112049.66;5007068;28;20948;-79
2021/12/13 03:04:25;;;;;;;6.50;4.53;;;10.90;56.60;;;-142.21;98.14;112049.66;4999946;28;20472;-79
2021/12/13 03:06:59;;;;;;;6.83;5.30;;;10.90;56.80;;;-142.21;97.58;112049.66;4992466;28;20533;-78
2021/12/13 03:09:33;;;;;;;7.37;5.47;;;10.90;56.70;;;-142.21;97.82;112049.66;5008775;28;20472;-80
2021/12/13 03:12:03;;;;;;;5.40;4.90;;;10.90;56.70;;;-142.21;97.84;112049.66;4961208;28;20574;-79
2021/12/13 03:14:34;;;;;;;6.77;4.90;;;10.90;56.70;;;-142.21;97.87;112049.66;5001464;28;20537;-79
2021/12/13 03:17:10;;;;;;;6.07;5.20;;;10.90;56.60;;;-142.21;97.46;112049.66;5011321;28;20501;-79
2021/12/13 03:20:11;;;;;;;5.60;5.00;;;10.90;56.50;;;-142.21;97.82;112049.66;5002975;28;20474;-79
2021/12/13 03:23:13;;;;;;;6.30;4.90;;;10.80;56.70;;;-142.21;97.67;112049.66;4965582;28;20469;-79
2021/12/13 03:26:14;;;;;;;5.43;4.73;;;10.80;56.80;;;-142.21;98.34;112049.66;5008407;28;20472;-79
2021/12/13 03:29:03;;;;;;;6.83;5.00;;;10.80;57.00;;;-142.21;98.47;112049.66;4995414;28;20450;-79
2021/12/13 03:31:38;;;;;;;6.60;5.47;;;10.80;57.00;;;-142.21;98.58;112049.66;5009949;28;20553;-80
2021/12/13 03:37:57;;;;;;;6.80;5.17;;;10.80;56.90;;;-142.21;98.45;112049.66;5001288;28;21005;-80
2021/12/13 03:40:25;;;;;;;6.47;4.83;;;10.70;57.10;;;-142.21;98.76;112049.66;4996460;28;20945;-79
2021/12/13 03:43:00;;;;;;;6.00;5.13;;;10.70;57.10;;;-142.21;98.81;112049.66;5009239;28;20513;-80
2021/12/13 03:45:33;;;;;;;8.13;5.13;;;10.70;57.20;;;-142.21;99.15;112049.66;5005327;28;20449;-79
2021/12/13 03:48:02;;;;;;;7.30;5.40;;;10.70;57.30;;;-142.21;99.75;112049.66;5010736;28;20534;-80
2021/12/13 03:50:36;;;;;;;6.93;4.77;;;10.60;57.20;;;-142.21;99.65;112049.66;5010097;28;20966;-80
2021/12/13 03:53:11;;;;;;;6.47;5.40;;;10.60;57.60;;;-142.21;100.00;112049.66;5007781;28;20840;-80
2021/12/13 03:55:40;;;;;;;8.17;5.40;;;10.60;57.60;;;-142.21;100.00;112049.66;4997270;28;20842;-79
2021/12/13 03:58:14;;;;;;;7.40;5.20;;;10.50;57.90;;;-142.21;100.00;112049.66;4993308;28;20457;-79
2021/12/13 04:00:50;;;;;;;8.57;5.40;;;10.40;58.00;;;-142.21;100.00;112049.66;4975794;28;20541;-79
2021/12/13 04:03:19;;;;;;;6.30;5.10;;;10.40;57.90;;;-142.21;100.00;112049.66;4994767;28;20464;-79
2021/12/13 04:05:49;;;;;;;6.33;4.93;;;10.30;57.90;;;-142.21;100.00;112049.66;4981558;28;20529;-80
2021/12/13 04:08:21;;;;;;;5.70;5.10;;;10.30;58.20;;;-142.21;100.00;112049.66;5003991;28;20458;-79
2021/12/13 04:10:56;;;;;;;7.13;5.50;;;10.30;58.50;;;-142.21;100.00;112049.66;5005718;28;20952;-80
2021/12/13 04:13:30;;;;;;;6.63;5.03;;;10.30;58.60;;;-142.21;100.00;112049.66;5001203;28;20474;-79
2021/12/13 04:16:11;;;;;;;7.60;5.50;;;10.40;58.60;;;-142.21;100.00;112049.66;5003477;28;20446;-80
2021/12/13 04:19:06;;;;;;;7.83;5.07;;;10.40;58.70;;;-142.21;100.00;112049.66;5010435;28;20492;-80
2021/12/13 04:21:46;;;;;;;5.70;4.73;;;10.40;58.70;;;-142.21;100.00;112049.66;5006389;28;20438;-80
2021/12/13 04:24:27;;;;;;;7.47;5.00;;;10.40;58.50;;;-142.21;100.00;112049.66;4992783;28;20435;-80
2021/12/13 04:27:01;;;;;;;6.47;5.30;;;10.30;58.80;;;-142.21;100.00;112049.66;4996969;28;21002;-80
2021/12/13 04:29:37;;;;;;;7.23;5.20;;;10.20;58.80;;;-142.21;100.00;112049.66;5001030;28;20466;-79
2021/12/13 04:32:23;;;;;;;5.90;5.27;;;10.20;58.90;;;-142.21;100.00;112049.66;5010628;28;20985;-80
2021/12/13 04:34:53;;;;;;;6.47;5.37;;;10.20;59.10;;;-142.21;100.00;112049.66;4996940;28;20461;-79
2021/12/13 04:37:25;;;;;;;6.67;5.40;;;10.20;58.80;;;-142.21;100.00;112049.66;5009484;28;20549;-80
2021/12/13 04:39:58;;;;;;;7.60;6.03;;;10.30;59.10;;;-142.21;100.00;112049.66;4963656;28;20442;-79
2021/12/13 04:42:29;;;;;;;6.30;5.20;;;10.30;59.10;;;-142.21;100.00;112049.66;5011824;28;20540;-80
2021/12/13 04:45:04;;;;;;;6.77;5.27;;;10.30;59.10;;;-142.21;100.00;112049.66;5000526;28;20864;-80
2021/12/13 04:47:37;;;;;;;6.53;5.37;;;10.30;59.10;;;-142.21;100.00;112049.66;5012886;28;20532;-80
2021/12/13 04:50:14;;;;;;;5.70;5.13;;;10.30;59.10;;;-142.21;100.00;112049.66;5000773;28;20438;-79
2021/12/13 04:52:42;;;;;;;6.37;5.07;;;10.20;59.30;;;-142.21;100.00;112049.66;4999253;28;20478;-79
2021/12/13 04:55:14;;;;;;;7.47;5.13;;;10.20;59.20;;;-142.21;100.00;112049.66;5004124;28;20938;-80
2021/12/13 04:57:43;;;;;;;5.13;4.57;;;10.20;59.30;;;-142.21;100.00;112049.66;5005748;28;20547;-79
2021/12/13 05:00:20;;;;;;;6.87;5.40;;;10.20;59.20;;;-142.21;100.00;112049.66;5004996;28;20881;-79
2021/12/13 05:02:52;;;;;;;7.50;5.50;;;10.20;59.40;;;-142.21;100.00;112049.66;5004785;28;20445;-79
2021/12/13 05:05:21;;;;;;;5.37;4.80;;;10.20;59.40;;;-142.21;100.00;112049.66;4999215;28;20458;-80
2021/12/13 05:07:51;;;;;;;5.63;5.10;;;10.30;59.50;;;-142.21;100.00;112049.66;5006786;28;20456;-80
2021/12/13 05:10:23;;;;;;;6.63;5.03;;;10.30;60.10;;;-142.21;100.00;112049.66;5011770;28;20508;-78
2021/12/13 05:13:05;;;;;;;5.63;5.00;;;10.30;59.70;;;-142.21;100.00;112049.66;5006163;28;20963;-80
2021/12/13 05:15:37;;;;;;;6.43;4.90;;;10.30;59.80;;;-142.21;100.00;112049.66;5000928;28;20469;-80
2021/12/13 05:18:11;;;;;;;7.93;5.23;;;10.30;60.10;;;-142.21;100.00;112049.66;4984988;28;20443;-80
2021/12/13 05:20:41;;;;;;;7.00;4.80;;;10.30;59.80;;;-142.21;100.00;112049.66;5006771;28;20471;-80
2021/12/13 05:23:11;;;;;;;6.87;5.30;;;10.30;60.00;;;-142.21;100.00;112049.66;5010642;28;20934;-80
2021/12/13 05:25:42;;;;;;;8.63;5.77;;;10.30;60.00;;;-142.21;100.00;112049.66;5010778;28;21030;-79
2021/12/13 05:28:15;;;;;;;6.30;5.07;;;10.30;59.90;;;-142.21;100.00;112049.66;5009258;28;20438;-80
2021/12/13 05:30:57;;;;;;;6.30;5.20;;;10.30;59.80;;;-142.21;100.00;112049.66;4998127;28;20531;-80
2021/12/13 05:33:29;;;;;;;5.93;5.20;;;10.40;59.90;;;-142.21;100.00;112049.66;4995688;28;20991;-79
2021/12/13 05:36:01;;;;;;;5.60;5.00;;;10.40;59.80;;;-142.21;100.00;112049.66;5009715;28;20442;-79
2021/12/13 05:38:35;;;;;;;6.60;5.07;;;10.30;59.80;;;-142.21;100.00;112049.66;5003824;28;20819;-79
2021/12/13 05:41:12;;;;;;;7.33;5.27;;;10.30;59.90;;;-142.21;100.00;112049.66;4981065;28;20462;-79
2021/12/13 05:43:47;;;;;;;6.07;5.00;;;10.30;60.00;;;-142.21;100.00;112049.66;4995204;28;20541;-78
2021/12/13 05:46:20;;;;;;;6.23;4.90;;;10.20;60.10;;;-142.21;100.00;112049.66;4998935;28;21006;-78
2021/12/13 05:48:52;;;;;;;7.80;5.37;;;10.20;60.40;;;-142.21;100.00;112049.66;5013205;28;20443;-79
2021/12/13 05:51:30;;;;;;;6.30;4.97;;;10.20;60.40;;;-142.21;100.00;112049.66;5000870;28;20546;-79
2021/12/13 05:54:03;;;;;;;7.73;5.40;;;10.20;60.60;;;-142.21;100.00;112049.66;4997794;28;20829;-79
2021/12/13 05:56:39;;;;;;;6.90;4.83;;;10.30;60.60;;;-142.21;100.00;112049.66;4995828;28;20443;-80
2021/12/13 05:59:24;;;;;;;7.00;5.13;;;10.30;61.20;;;-142.21;100.00;112049.66;4996183;28;20452;-79
2021/12/13 06:02:06;;;;;;;5.53;4.80;;;10.20;60.50;;;-142.21;100.00;112049.66;5007757;28;20478;-79
2021/12/13 06:04:42;;;;;;;6.23;4.70;;;10.30;60.60;;;-142.21;100.00;112049.66;5007185;28;20450;-79
2021/12/13 06:07:23;;;;;;;5.97;4.53;;;10.30;60.20;;;-142.21;100.00;112049.66;5008532;28;20872;-80
2021/12/13 06:10:04;;;;;;;5.27;4.60;;;10.30;60.10;;;-142.21;100.00;112049.66;5002857;28;20447;-80
2021/12/13 06:12:38;;;;;;;5.07;4.57;;;10.40;59.90;;;-142.21;100.00;112049.66;5009745;28;20485;-80
2021/12/13 06:15:24;;;;;;;8.77;4.90;;;10.40;59.90;;;-142.21;100.00;112049.66;4987057;28;20883;-80
2021/12/13 06:18:22;;;;;;;6.40;5.00;;;10.50;59.60;;;-142.21;100.00;112049.66;4996615;28;20435;-79
2021/12/13 06:21:03;;;;;;;5.30;4.63;;;10.50;59.50;;;-142.21;100.00;112049.66;5004225;28;20474;-79
2021/12/13 06:23:34;;;;;;;5.90;4.77;;;10.50;59.30;;;-142.21;100.00;112049.66;4997764;28;20505;-80
2021/12/13 06:26:07;;;;;;;7.03;4.70;;;10.50;59.30;;;-142.21;100.00;112049.66;5007574;28;20945;-79
2021/12/13 06:28:37;;;;;;;7.70;4.97;;;10.50;59.30;;;-142.21;100.00;112049.66;4988827;28;20521;-79
2021/12/13 06:31:10;;;;;;;5.50;4.63;;;10.60;59.30;;;-142.21;100.00;112049.66;5003552;28;20914;-79
2021/12/13 06:33:53;;;;;;;8.63;4.47;;;10.60;59.30;;;-142.21;100.00;112049.66;4991452;28;21088;-79
2021/12/13 06:36:30;;;;;;;5.83;4.63;;;10.70;59.20;;;-142.21;100.00;112049.66;5006203;28;20942;-79
2021/12/13 06:39:01;;;;;;;5.43;4.60;;;10.70;59.20;;;-142.21;100.00;112049.66;4988378;28;20462;-79
2021/12/13 06:41:38;;;;;;;5.73;4.70;;;10.70;59.30;;;-142.21;100.00;112049.66;5011452;28;20665;-79
2021/12/13 06:44:17;;;;;;;6.27;4.83;;;10.80;59.10;;;-142.21;100.00;112049.66;4990437;28;20618;-79
2021/12/13 06:46:55;;;;;;;8.80;4.57;;;10.80;58.80;;;-142.21;100.00;112049.66;5012190;28;20438;-79
2021/12/13 06:49:32;;;;;;;5.77;4.50;;;10.90;58.90;;;-142.21;100.00;112049.66;5007258;28;20541;-78
2021/12/13 06:52:03;;;;;;;6.43;4.27;;;10.90;58.60;;;-142.21;100.00;112049.66;5011936;28;20486;-79
2021/12/13 06:54:37;;;;;;;5.27;4.37;;;10.80;58.40;;;-142.21;100.00;112049.66;5007259;28;20473;-79
2021/12/13 06:57:09;;;;;;;5.60;4.20;;;10.80;58.30;;;-142.21;100.00;112049.66;4993559;28;20549;-78
2021/12/13 06:59:47;;;;;;;5.40;4.50;;;10.80;58.40;;;-142.21;100.00;112049.66;4982523;28;20450;-79
2021/12/13 07:02:22;;;;;;;5.23;4.07;;;10.80;58.40;;;-142.21;100.00;112049.66;5000147;28;21017;-78
2021/12/13 07:05:01;;;;;;;5.07;4.10;;;10.80;58.90;;;-142.21;100.00;112049.66;4994648;28;20529;-79
2021/12/13 07:07:37;;;;;;;6.17;4.20;;;10.80;58.90;;;-142.21;100.00;112049.66;5004756;28;20534;-79
2021/12/13 07:10:23;;;;;;;5.87;4.33;;;10.80;58.80;;;-142.21;100.00;112049.66;5004939;28;20473;-79
2021/12/13 07:12:55;;;;;;;4.67;4.10;;;10.80;58.50;;;-142.21;100.00;112049.66;5001932;28;20475;-78
2021/12/13 07:15:29;;;;;;;5.70;4.30;;;10.90;58.90;;;-142.21;100.00;112049.66;5002340;28;20524;-79
2021/12/13 07:18:14;;;;;;;5.40;4.27;;;10.90;59.20;;;-142.21;100.00;112049.66;4995447;28;20877;-79
2021/12/13 07:20:54;;;;;;;4.97;4.47;;;10.90;59.40;;;-142.21;100.00;112049.66;4970187;28;20502;-78
2021/12/13 07:23:22;;;;;;;5.10;4.20;;;10.90;58.70;;;-142.21;100.00;112049.66;5005919;28;20537;-78
2021/12/13 07:25:53;;;;;;;6.40;5.33;;;10.90;58.80;;;-142.21;100.00;112049.66;5008689;28;20509;-79
2021/12/13 07:28:33;;;;;;;5.93;4.57;;;10.90;58.80;;;-142.21;100.00;112049.66;5009321;28;20439;-77
2021/12/13 07:31:08;;;;;;;7.13;4.37;;;10.90;59.00;;;-142.21;100.00;112049.66;4994038;28;20438;-79
2021/12/13 07:33:44;;;;;;;6.57;5.87;;;10.90;59.00;;;-142.21;100.00;112049.66;4992150;28;20467;-79
2021/12/13 07:36:23;;;;;;;7.37;5.77;;;10.90;58.70;;;-142.21;100.00;112049.66;4993117;28;20424;-80
2021/12/13 07:38:56;;;;;;;6.83;5.63;;;10.90;58.70;;;-142.21;100.00;112049.66;4997269;28;20522;-80
2021/12/13 07:41:26;;;;;;;7.80;5.90;;;10.90;58.70;;;-142.21;100.00;112049.66;5008844;28;20513;-78
2021/12/13 07:43:53;;;;;;;6.93;5.40;;;10.90;59.00;;;-142.21;100.00;112049.66;5008067;28;20432;-79
2021/12/13 07:46:29;;;;;;;6.83;5.63;;;10.90;59.20;;;-142.21;100.00;112049.66;4992967;28;20506;-78
2021/12/13 07:49:04;;;;;;;7.03;4.87;;;10.90;59.40;;;-142.21;100.00;112049.66;4993622;28;20448;-79
2021/12/13 07:51:36;;;;;;;8.50;4.90;;;10.90;59.50;;;-142.21;100.00;112049.66;5001104;28;20870;-79
2021/12/13 07:54:08;;;;;;;6.80;5.67;;;11.00;59.60;;;-142.21;100.00;112049.66;5008414;28;20564;-79
2021/12/13 07:56:49;;;;;;;6.87;5.50;;;11.00;59.10;;;-142.21;100.00;112049.66;5011855;28;20442;-77
2021/12/13 07:59:26;;;;;;;7.43;5.53;;;11.00;58.70;;;-142.21;100.00;112049.66;4991852;28;20431;-79
2021/12/13 08:02:01;;;;;;;5.93;4.90;;;11.00;59.40;;;-142.21;100.00;112049.66;4991846;28;20430;-78
2021/12/13 08:04:33;;;;;;;6.93;5.27;;;11.00;59.30;;;-142.21;100.00;112049.66;4992690;28;20440;-77
2021/12/13 08:07:10;;;;;;;8.50;5.93;;;11.00;58.70;;;-142.21;100.00;112049.66;5010525;28;20529;-77
2021/12/13 08:09:46;;;;;;;6.10;5.30;;;11.00;58.60;;;-142.21;100.00;112049.66;4995511;28;20574;-79
2021/12/13 08:12:21;;;;;;;7.97;5.70;;;11.00;58.70;;;-142.21;100.00;112049.66;5011077;28;20446;-79
2021/12/13 08:14:53;;;;;;;11.77;6.00;;;11.10;59.10;;;-142.21;100.00;112049.66;5004028;28;20525;-77
2021/12/13 08:17:26;;;;;;;8.13;5.70;;;11.20;58.90;;;-142.21;100.00;112049.66;4991645;28;20510;-77
2021/12/13 08:19:58;;;;;;;7.03;5.50;;;11.20;58.70;;;-142.21;100.00;112049.66;4992666;28;20471;-78
2021/12/13 08:22:32;;;;;;;6.23;5.63;;;11.10;58.70;;;-142.21;100.00;112049.66;4991992;28;20471;-76
2021/12/13 08:25:06;;;;;;;6.27;5.47;;;11.20;58.80;;;-142.21;100.00;112049.66;5005625;28;20434;-77
2021/12/13 08:27:37;;;;;;;6.97;5.20;;;11.10;58.80;;;-142.21;100.00;112049.66;5011362;28;20445;-78
2021/12/13 08:30:13;;;;;;;7.30;5.63;;;11.10;59.00;;;-142.21;100.00;112049.66;5008484;28;20466;-78
2021/12/13 08:33:03;;;;;;;6.83;6.10;;;11.10;59.20;;;-142.21;100.00;112049.66;4992341;28;20470;-76
2021/12/13 08:35:56;;;;;;;6.37;5.47;;;11.10;59.20;;;-142.21;100.00;112049.66;4993144;28;20439;-76
2021/12/13 08:38:39;;;;;;;7.57;5.93;;;11.10;59.70;;;-142.21;100.00;112049.66;4991638;28;20462;-77
2021/12/13 08:41:21;;;;;;;7.63;6.13;;;11.10;59.40;;;-142.21;100.00;112049.66;5002959;28;20493;-77
2021/12/13 08:44:14;;;;;;;8.07;6.00;;;11.20;59.30;;;-142.21;100.00;112049.66;5004930;28;20508;-77
2021/12/13 08:46:58;;;;;;;9.13;6.37;;;11.10;59.10;;;-142.21;100.00;112049.66;4994070;28;20506;-77
2021/12/13 08:49:38;;;;;;;7.93;5.73;;;11.10;59.20;;;-142.21;100.00;112049.66;4992190;28;20459;-78
2021/12/13 08:52:23;;;;;;;6.20;5.00;;;11.10;59.10;;;-142.21;100.00;112049.66;5010282;28;20446;-77
2021/12/13 08:55:15;;;;;;;6.47;5.03;;;11.20;59.30;;;-142.21;100.00;112049.66;5011708;28;20528;-78
2021/12/13 08:57:51;;;;;;;6.53;5.20;;;11.20;59.10;;;-142.21;100.00;112049.66;4998097;28;20479;-76
2021/12/13 09:00:51;;;;;;;7.47;5.23;;;11.20;59.10;;;-142.21;100.00;112049.66;4992143;28;20478;-77
2021/12/13 09:03:40;;;;;;;8.07;5.33;;;11.20;59.20;;;-142.21;100.00;112049.66;4993097;28;20435;-76
2021/12/13 09:06:30;;;;;;;8.13;5.80;;;11.20;59.30;;;-142.21;100.00;112049.66;4990931;28;20463;-77
2021/12/13 09:09:07;;;;;;;6.43;5.10;;;11.30;59.30;;;-142.21;100.00;112049.66;4992157;28;20463;-75
2021/12/13 09:11:45;;;;;;;6.90;5.23;;;11.40;59.20;;;-142.21;100.00;112049.66;5008025;28;20461;-76
2021/12/13 09:14:22;;;;;;;7.03;5.57;;;11.50;59.10;;;-142.21;100.00;112049.66;5017002;28;21007;-77
2021/12/13 09:17:07;;;;;;;6.83;6.00;;;11.50;58.90;;;-142.21;100.00;112049.66;5014870;28;20457;-80
2021/12/13 09:19:46;;;;;;;7.60;5.67;;;11.60;59.50;;;-142.21;100.00;112049.66;4996102;28;20451;-79
2021/12/13 09:22:19;;;;;;;7.53;5.97;;;11.60;58.80;;;-142.21;100.00;112049.66;4996888;28;20477;-78
2021/12/13 09:24:57;;;;;;;7.27;5.63;;;11.70;58.50;;;-142.21;100.00;112049.66;4995181;28;20533;-77
2021/12/13 09:27:36;;;;;;;9.33;6.93;;;11.80;58.60;;;-142.21;100.00;112049.66;5002873;28;20525;-79
2021/12/13 09:30:23;;;;;;;8.27;6.50;;;11.90;58.60;;;-142.21;100.00;112049.66;4997529;28;20426;-78
2021/12/13 09:32:58;;;;;;;9.23;6.03;;;12.00;58.50;;;-142.21;100.00;112049.66;5013400;28;20446;-79
2021/12/13 09:35:40;;;;;;;7.23;5.87;;;11.90;58.90;;;-142.21;100.00;112049.66;5002757;28;20569;-79
2021/12/13 09:38:37;;;;;;;7.27;6.20;;;12.00;59.10;;;-142.21;100.00;112049.66;5008906;28;20447;-79
2021/12/13 09:41:25;;;;;;;7.53;5.47;;;12.10;58.90;;;-142.21;100.00;112049.66;5003183;28;20822;-79
2021/12/13 09:44:02;;;;;;;6.87;5.57;;;12.10;58.90;;;-142.21;100.00;112049.66;4995740;28;20434;-79
2021/12/13 09:46:38;;;;;;;6.10;5.50;;;12.20;59.10;;;-142.21;99.99;112049.66;5001310;28;20471;-79
2021/12/13 09:49:13;;;;;;;5.93;5.20;;;12.40;59.20;;;-142.21;100.00;112049.66;5003577;28;20482;-80
2021/12/13 09:51:49;;;;;;;5.77;5.07;;;12.60;59.30;;;-142.21;100.00;112049.66;5000555;28;20457;-80
2021/12/13 09:54:22;;;;;;;6.10;5.07;;;12.70;58.90;;;-142.21;100.00;112049.66;5003550;28;20471;-79
2021/12/13 09:56:55;;;;;;;6.87;4.70;;;12.60;58.60;;;-142.21;100.00;112049.66;5004344;28;20504;-79
2021/12/13 09:59:29;;;;;;;6.13;4.50;;;12.50;58.50;;;-142.21;100.00;112049.66;5014105;28;20460;-80
2021/12/13 10:02:02;;;;;;;7.67;5.23;;;12.50;58.20;;;-142.21;100.00;112049.66;5014260;28;20930;-80
2021/12/13 10:04:36;;;;;;;6.07;5.10;;;12.50;58.20;;;-142.21;100.00;112049.66;5013211;28;20430;-79
2021/12/13 10:07:12;;;;;;;5.73;4.63;;;12.40;58.60;;;-142.21;100.00;112049.66;5002620;28;20438;-78
2021/12/13 10:09:47;;;;;;;7.10;4.43;;;12.50;58.90;;;-142.21;97.22;112049.66;5016409;28;20506;-78
2021/12/13 10:12:22;;;;;;;6.93;4.53;;;12.80;58.40;;;-142.21;93.97;112049.66;5009505;28;20439;-78
2021/12/13 10:14:58;;;;;;;5.63;4.87;;;13.30;58.00;;;-142.21;87.14;112049.66;5013440;28;20473;-78
2021/12/13 10:17:31;;;;;;;5.10;4.27;;;13.90;56.80;;;-142.21;86.09;112049.66;5005651;28;20465;-77
2021/12/13 10:20:09;;;;;;;4.90;4.03;;;14.70;56.10;;;-142.21;80.53;112049.66;5001906;28;20951;-79
2021/12/13 10:22:36;;;;;;;5.00;4.30;;;15.40;55.00;;;-142.21;84.20;112049.66;4995103;28;20934;-79
2021/12/13 10:25:10;;;;;;;5.23;4.40;;;15.60;54.20;;;-142.21;86.63;112049.66;4999568;28;20473;-77
2021/12/13 10:27:39;;;;;;;4.17;3.70;;;15.60;53.90;;;-142.21;87.69;112049.66;4996657;28;20517;-79
2021/12/13 10:30:14;;;;;;;4.70;4.07;;;15.60;54.10;;;-142.21;88.88;112049.66;5013026;28;20481;-78
2021/12/13 10:32:43;;;;;;;4.50;3.63;;;15.60;54.00;;;-142.21;89.71;112049.66;5007762;28;20520;-78
2021/12/13 10:35:16;;;;;;;4.23;3.70;;;15.60;54.00;;;-142.21;88.72;112049.66;5004775;28;20569;-79
2021/12/13 10:37:50;;;;;;;5.90;4.10;;;15.60;53.90;;;-142.21;89.18;112049.66;5008739;28;20454;-79
2021/12/13 10:40:29;;;;;;;4.70;3.80;;;15.60;53.40;;;-142.21;87.48;112049.66;5004071;28;20455;-78
2021/12/13 10:43:02;;;;;;;4.63;4.03;;;15.60;53.30;;;-142.21;87.98;112049.66;5003388;28;20482;-79